createdAt,value
2023-04-18T00:01:42.804Z,4.50
2023-04-18T00:04:09.721Z,4.97
2023-04-18T00:06:36.449Z,4.50
2023-04-18T00:09:03.958Z,4.60
2023-04-18T00:11:30.575Z,4.27
2023-04-18T00:14:00.502Z,4.57
2023-04-18T00:16:28.301Z,4.37
2023-04-18T00:18:55.477Z,4.83
2023-04-18T00:21:22.744Z,5.17
2023-04-18T00:23:49.446Z,4.43
2023-04-18T00:26:16.011Z,4.70
2023-04-18T00:28:42.622Z,5.10
2023-04-18T00:31:09.205Z,4.70
2023-04-18T00:33:35.781Z,5.03
2023-04-18T00:36:02.392Z,5.30
2023-04-18T00:38:28.952Z,4.93
2023-04-18T00:40:55.577Z,4.60
2023-04-18T00:43:25.440Z,4.57
2023-04-18T00:45:52.572Z,5.07
2023-04-18T00:48:19.245Z,5.80
2023-04-18T00:50:45.930Z,5.57
2023-04-18T00:53:13.558Z,4.10
2023-04-18T00:55:41.401Z,5.03
2023-04-18T00:58:08.173Z,5.07
2023-04-18T01:00:34.799Z,5.03
2023-04-18T01:03:01.516Z,5.17
2023-04-18T01:05:28.281Z,4.53
2023-04-18T01:08:01.059Z,4.57
2023-04-18T01:10:28.798Z,4.67
2023-04-18T01:13:15.150Z,4.80
2023-04-18T01:15:43.740Z,4.97
2023-04-18T01:18:11.774Z,4.80
2023-04-18T01:20:41.773Z,4.83
2023-04-18T01:23:10.600Z,4.63
2023-04-18T01:25:38.118Z,4.73
2023-04-18T01:28:06.216Z,5.40
2023-04-18T01:30:33.871Z,4.57
2023-04-18T01:33:01.468Z,5.07
2023-04-18T01:35:28.621Z,5.23
2023-04-18T01:37:55.765Z,4.73
2023-04-18T01:40:22.414Z,5.30
2023-04-18T01:42:49.113Z,4.87
2023-04-18T01:45:16.618Z,5.03
2023-04-18T01:47:43.750Z,5.10
2023-04-18T01:50:10.944Z,6.50
2023-04-18T01:52:37.509Z,5.60
2023-04-18T01:55:04.588Z,5.33
2023-04-18T01:57:31.157Z,4.50
2023-04-18T01:59:57.841Z,5.33
2023-04-18T02:02:24.584Z,5.13
2023-04-18T02:04:51.316Z,5.00
2023-04-18T02:07:17.844Z,5.20
2023-04-18T02:09:44.367Z,6.17
2023-04-18T02:12:12.659Z,5.90
2023-04-18T02:14:39.286Z,5.03
2023-04-18T02:17:05.860Z,5.50
2023-04-18T02:19:32.376Z,6.20
2023-04-18T02:21:59.065Z,6.23
2023-04-18T02:24:25.782Z,7.20
2023-04-18T02:26:52.349Z,5.40
2023-04-18T02:29:18.965Z,5.47
2023-04-18T02:31:45.677Z,5.27
2023-04-18T02:34:12.711Z,5.07
2023-04-18T02:36:39.543Z,5.70
2023-04-18T02:39:06.262Z,7.13
2023-04-18T02:41:34.727Z,5.57
2023-04-18T02:44:01.314Z,6.23
2023-04-18T02:46:28.013Z,5.80
2023-04-18T02:48:54.590Z,6.73
2023-04-18T02:51:21.295Z,5.80
2023-04-18T02:53:48.404Z,5.97
2023-04-18T02:56:17.146Z,6.77
2023-04-18T02:58:43.757Z,5.90
2023-04-18T03:01:10.407Z,6.13
2023-04-18T03:03:36.993Z,5.77
2023-04-18T03:06:03.740Z,6.63
2023-04-18T03:08:30.261Z,6.37
2023-04-18T03:10:56.843Z,5.80
2023-04-18T03:13:23.388Z,6.93
2023-04-18T03:15:50.083Z,6.60
2023-04-18T03:18:16.947Z,6.63
2023-04-18T03:20:43.595Z,6.47
2023-04-18T03:23:10.262Z,7.33
2023-04-18T03:25:37.227Z,6.60
2023-04-18T03:28:03.870Z,9.07
2023-04-18T03:30:31.393Z,7.67
2023-04-18T03:32:58.692Z,7.50
2023-04-18T03:35:25.624Z,6.73
2023-04-18T03:37:52.191Z,7.07
2023-04-18T03:40:19.125Z,6.03
2023-04-18T03:42:45.752Z,6.73
2023-04-18T03:45:12.417Z,7.13
2023-04-18T03:47:39.083Z,6.83
2023-04-18T03:50:06.310Z,6.30
2023-04-18T03:52:32.886Z,5.90
2023-04-18T03:54:59.716Z,6.43
2023-04-18T03:57:26.422Z,5.97
2023-04-18T03:59:53.059Z,6.43
2023-04-18T04:02:19.736Z,7.33
2023-04-18T04:04:47.066Z,6.60
2023-04-18T04:07:13.922Z,7.13
2023-04-18T04:09:40.466Z,6.53
2023-04-18T04:12:07.049Z,7.20
2023-04-18T04:14:33.572Z,6.60
2023-04-18T04:17:00.231Z,7.07
2023-04-18T04:19:26.720Z,7.13
2023-04-18T04:21:53.328Z,7.00
2023-04-18T04:24:20.499Z,7.57
2023-04-18T04:26:48.749Z,7.00
2023-04-18T04:29:16.427Z,7.17
2023-04-18T04:31:43.095Z,7.53
2023-04-18T04:34:09.758Z,7.07
2023-04-18T04:36:36.407Z,7.93
2023-04-18T04:39:05.913Z,8.40
2023-04-18T04:41:32.481Z,8.90
2023-04-18T04:43:59.666Z,7.30
2023-04-18T04:46:29.376Z,8.47
2023-04-18T04:48:56.379Z,9.25
2023-04-18T04:51:23.018Z,8.73
2023-04-18T04:53:49.602Z,6.73
2023-04-18T04:56:16.221Z,7.50
2023-04-18T04:58:42.794Z,6.57
2023-04-18T05:01:09.371Z,7.67
2023-04-18T05:03:36.703Z,7.53
2023-04-18T05:06:03.763Z,7.87
2023-04-18T05:08:30.466Z,6.90
2023-04-18T05:10:57.084Z,7.07
2023-04-18T05:13:23.639Z,6.80
2023-04-18T05:15:50.321Z,7.43
2023-04-18T05:18:16.941Z,7.80
2023-04-18T05:20:43.509Z,7.50
2023-04-18T05:23:10.223Z,7.03
2023-04-18T05:25:36.950Z,8.80
2023-04-18T05:28:08.272Z,30.83
2023-04-18T05:30:35.165Z,26.77
2023-04-18T05:33:01.823Z,8.07
2023-04-18T05:35:28.430Z,18.13
2023-04-18T05:37:54.982Z,11.30
2023-04-18T05:40:21.620Z,7.57
2023-04-18T05:42:48.119Z,7.67
2023-04-18T05:45:14.714Z,12.47
2023-04-18T05:47:42.507Z,8.50
2023-04-18T05:50:09.339Z,7.97
2023-04-18T05:52:38.128Z,8.13
2023-04-18T05:55:06.259Z,8.40
2023-04-18T05:57:33.047Z,7.20
2023-04-18T05:59:59.582Z,8.17
2023-04-18T06:02:26.566Z,8.07
2023-04-18T06:04:53.343Z,7.90
2023-04-18T06:07:21.403Z,10.63
2023-04-18T06:09:49.782Z,7.70
2023-04-18T06:12:16.530Z,7.80
2023-04-18T06:14:43.079Z,7.67
2023-04-18T06:17:10.311Z,7.70
2023-04-18T06:19:36.880Z,7.00
2023-04-18T06:22:03.521Z,7.90
2023-04-18T06:24:31.273Z,8.10
2023-04-18T06:26:58.132Z,7.07
2023-04-18T06:29:27.293Z,8.27
2023-04-18T06:31:54.193Z,7.73
2023-04-18T06:34:20.891Z,7.63
2023-04-18T06:36:47.477Z,8.10
2023-04-18T06:39:14.091Z,8.10
2023-04-18T06:41:40.882Z,8.00
2023-04-18T06:44:07.361Z,8.07
2023-04-18T06:46:34.059Z,7.70
2023-04-18T06:49:00.659Z,7.97
2023-04-18T06:51:27.501Z,9.03
2023-04-18T06:53:54.245Z,7.83
2023-04-18T06:56:21.240Z,8.77
2023-04-18T06:58:48.277Z,8.07
2023-04-18T07:01:15.046Z,8.00
2023-04-18T07:03:41.608Z,7.63
2023-04-18T07:06:10.506Z,7.10
2023-04-18T07:08:37.203Z,6.97
2023-04-18T07:11:03.743Z,8.30
2023-04-18T07:13:30.259Z,8.07
2023-04-18T07:15:56.917Z,7.70
2023-04-18T07:18:36.724Z,8.33
2023-04-18T07:21:07.474Z,6.57
2023-04-18T07:23:34.938Z,8.57
2023-04-18T07:26:02.895Z,8.27
2023-04-18T07:28:31.019Z,7.30
2023-04-18T07:30:58.087Z,8.33
2023-04-18T07:33:25.637Z,8.40
2023-04-18T07:35:53.100Z,7.93
2023-04-18T07:38:19.816Z,7.67
2023-04-18T07:40:46.382Z,10.37
2023-04-18T07:43:12.893Z,7.80
2023-04-18T07:45:39.582Z,7.73
2023-04-18T07:48:06.521Z,7.17
2023-04-18T07:50:33.096Z,8.33
2023-04-18T07:52:59.711Z,6.80
2023-04-18T07:55:26.433Z,7.70
2023-04-18T07:57:52.989Z,7.40
2023-04-18T08:00:19.830Z,6.47
2023-04-18T08:02:46.597Z,7.10
2023-04-18T08:05:13.407Z,7.33
2023-04-18T08:07:40.910Z,6.90
2023-04-18T08:10:07.982Z,7.17
2023-04-18T08:12:36.260Z,6.40
2023-04-18T08:15:03.643Z,8.00
2023-04-18T08:17:31.223Z,6.47
2023-04-18T08:19:57.863Z,7.23
2023-04-18T08:22:24.516Z,7.03
2023-04-18T08:25:03.851Z,7.53
2023-04-18T08:27:32.290Z,7.13
2023-04-18T08:29:58.880Z,7.00
2023-04-18T08:32:25.999Z,6.73
2023-04-18T08:34:52.618Z,7.13
2023-04-18T08:37:19.084Z,7.00
2023-04-18T08:39:45.785Z,7.07
2023-04-18T08:42:17.120Z,6.40
2023-04-18T08:44:45.114Z,7.30
2023-04-18T08:47:12.785Z,6.33
2023-04-18T08:49:40.107Z,5.90
2023-04-18T08:52:14.811Z,6.17
2023-04-18T08:54:42.854Z,6.00
2023-04-18T08:57:12.577Z,6.30
2023-04-18T08:59:40.218Z,5.87
2023-04-18T09:02:09.009Z,5.70
2023-04-18T09:04:41.400Z,5.73
2023-04-18T09:07:10.899Z,5.83
2023-04-18T09:09:53.957Z,5.87
2023-04-18T09:12:22.734Z,5.80
2023-04-18T09:14:51.561Z,5.50
2023-04-18T09:17:41.544Z,6.10
2023-04-18T09:20:10.872Z,6.03
2023-04-18T09:22:51.906Z,7.60
2023-04-18T09:25:34.930Z,6.10
2023-04-18T09:28:03.705Z,6.77
2023-04-18T09:30:39.350Z,5.87
2023-04-18T09:33:10.293Z,6.40
2023-04-18T09:35:38.040Z,6.10
2023-04-18T09:38:05.779Z,6.67
2023-04-18T09:40:32.925Z,6.00
2023-04-18T09:42:59.996Z,6.07
2023-04-18T09:45:27.247Z,6.27
2023-04-18T09:47:53.995Z,6.00
2023-04-18T09:50:20.940Z,5.90
2023-04-18T09:52:48.408Z,6.23
2023-04-18T09:55:19.956Z,5.60
2023-04-18T09:57:48.424Z,5.13
2023-04-18T10:00:24.437Z,6.33
2023-04-18T10:03:06.193Z,7.00
2023-04-18T10:05:35.958Z,6.33
2023-04-18T10:08:04.007Z,6.17
2023-04-18T10:10:30.714Z,5.73
2023-04-18T10:12:58.729Z,5.77
2023-04-18T10:15:27.477Z,5.50
2023-04-18T10:18:05.215Z,5.70
2023-04-18T10:20:35.199Z,5.20
2023-04-18T10:23:30.920Z,5.30
2023-04-18T10:25:58.457Z,5.60
2023-04-18T10:28:26.643Z,5.73
2023-04-18T10:31:03.794Z,5.27
2023-04-18T10:33:41.112Z,5.60
2023-04-18T10:36:09.031Z,6.03
2023-04-18T10:38:45.303Z,7.33
2023-04-18T10:41:25.433Z,6.30
2023-04-18T10:44:14.686Z,6.27
2023-04-18T10:46:51.087Z,5.30
2023-04-18T10:49:30.230Z,5.73
2023-04-18T10:52:00.206Z,7.17
2023-04-18T10:54:59.100Z,6.50
2023-04-18T10:57:37.839Z,5.73
2023-04-18T11:00:06.171Z,6.17
2023-04-18T11:02:33.663Z,5.63
2023-04-18T11:05:01.780Z,6.00
2023-04-18T11:07:48.779Z,6.00
2023-04-18T11:10:21.239Z,5.70
2023-04-18T11:12:48.278Z,5.93
2023-04-18T11:15:22.971Z,6.70
2023-04-18T11:18:03.937Z,6.00
2023-04-18T11:20:38.810Z,6.07
2023-04-18T11:23:25.150Z,6.77
2023-04-18T11:25:54.483Z,5.47
2023-04-18T11:28:22.364Z,5.77
2023-04-18T11:30:49.090Z,5.37
2023-04-18T11:33:15.812Z,6.13
2023-04-18T11:35:46.567Z,5.50
2023-04-18T11:38:15.838Z,5.67
2023-04-18T11:40:49.580Z,5.40
2023-04-18T11:43:21.508Z,6.50
2023-04-18T11:45:55.874Z,6.20
2023-04-18T11:48:23.117Z,5.53
2023-04-18T11:50:50.015Z,5.73
2023-04-18T11:53:35.015Z,6.13
2023-04-18T11:56:03.620Z,7.70
2023-04-18T11:58:34.374Z,5.37
2023-04-18T12:01:22.387Z,5.63
2023-04-18T12:04:08.642Z,5.73
2023-04-18T12:06:49.366Z,5.67
2023-04-18T12:09:17.253Z,6.17
2023-04-18T12:11:44.144Z,5.40
2023-04-18T12:14:21.655Z,6.40
2023-04-18T12:16:52.120Z,6.00
2023-04-18T12:19:20.787Z,6.00
2023-04-18T12:22:01.159Z,5.73
2023-04-18T12:24:31.996Z,6.17
2023-04-18T12:26:59.397Z,5.03
2023-04-18T12:29:28.887Z,6.13
2023-04-18T12:31:55.817Z,5.73
2023-04-18T12:34:22.400Z,6.37
2023-04-18T12:36:48.942Z,6.90
2023-04-18T12:39:15.529Z,5.80
2023-04-18T12:41:42.148Z,5.00
2023-04-18T12:44:09.365Z,6.20
2023-04-18T12:46:36.082Z,5.43
2023-04-18T12:49:02.668Z,5.80
2023-04-18T12:51:29.237Z,5.30
2023-04-18T12:53:56.739Z,5.67
2023-04-18T12:56:23.384Z,6.57
2023-04-18T12:58:49.894Z,7.03
2023-04-18T13:01:17.204Z,5.50
2023-04-18T13:03:45.617Z,5.40
2023-04-18T13:06:15.717Z,5.03
2023-04-18T13:08:42.704Z,5.40
2023-04-18T13:11:09.227Z,5.63
2023-04-18T13:13:36.302Z,5.63
2023-04-18T13:16:02.905Z,5.20
2023-04-18T13:18:29.502Z,5.30
2023-04-18T13:20:56.030Z,5.63
2023-04-18T13:23:22.680Z,5.97
2023-04-18T13:25:49.312Z,5.23
2023-04-18T13:28:15.937Z,6.40
2023-04-18T13:30:42.542Z,6.40
2023-04-18T13:33:10.301Z,6.97
2023-04-18T13:35:37.244Z,6.23
2023-04-18T13:38:04.091Z,6.23
2023-04-18T13:40:30.736Z,6.30
2023-04-18T13:42:57.371Z,5.87
2023-04-18T13:45:23.925Z,6.20
2023-04-18T13:47:51.007Z,5.87
2023-04-18T13:50:17.772Z,5.87
2023-04-18T13:52:44.683Z,11.57
2023-04-18T13:55:12.354Z,6.13
2023-04-18T13:57:39.255Z,6.50
2023-04-18T14:00:06.695Z,6.70
2023-04-18T14:02:33.450Z,6.77
2023-04-18T14:05:00.514Z,6.70
2023-04-18T14:07:27.283Z,6.50
2023-04-18T14:09:54.139Z,7.20
2023-04-18T14:12:21.044Z,5.77
2023-04-18T14:14:47.924Z,6.00
2023-04-18T14:17:14.656Z,7.17
2023-04-18T14:19:41.536Z,7.17
2023-04-18T14:22:08.050Z,6.10
2023-04-18T14:24:37.730Z,6.93
2023-04-18T14:27:04.362Z,6.77
2023-04-18T14:29:31.277Z,6.67
2023-04-18T14:31:57.934Z,6.33
2023-04-18T14:34:24.584Z,5.87
2023-04-18T14:36:51.168Z,6.67
2023-04-18T14:39:17.740Z,7.00
2023-04-18T14:41:45.901Z,6.10
2023-04-18T14:44:13.538Z,5.77
2023-04-18T14:46:40.164Z,6.20
2023-04-18T14:49:06.770Z,6.57
2023-04-18T14:51:33.342Z,6.70
2023-04-18T14:53:59.905Z,6.40
2023-04-18T14:56:26.964Z,6.70
2023-04-18T14:58:53.497Z,6.30
2023-04-18T15:01:20.128Z,6.63
2023-04-18T15:03:46.971Z,6.57
2023-04-18T15:06:13.722Z,6.63
2023-04-18T15:08:40.638Z,6.33
2023-04-18T15:11:08.199Z,6.73
2023-04-18T15:13:34.965Z,7.63
2023-04-18T15:16:01.924Z,6.87
2023-04-18T15:18:28.895Z,6.30
2023-04-18T15:20:57.042Z,6.67
2023-04-18T15:23:23.662Z,5.90
2023-04-18T15:25:50.225Z,6.20
2023-04-18T15:28:18.314Z,6.13
2023-04-18T15:30:45.858Z,6.67
2023-04-18T15:33:13.645Z,5.67
2023-04-18T15:35:40.309Z,6.20
2023-04-18T15:38:06.905Z,6.33
2023-04-18T15:40:33.601Z,5.93
2023-04-18T15:43:00.304Z,5.90
2023-04-18T15:45:26.858Z,5.95
2023-04-18T15:47:53.545Z,7.07
2023-04-18T15:50:20.515Z,6.07
2023-04-18T15:52:47.087Z,6.03
2023-04-18T15:55:13.746Z,6.47
2023-04-18T15:57:41.743Z,6.47
2023-04-18T16:00:13.996Z,5.72
2023-04-18T16:02:40.749Z,5.73
2023-04-18T16:05:08.527Z,5.93
2023-04-18T16:07:35.121Z,6.70
2023-04-18T16:10:03.659Z,6.07
2023-04-18T16:12:30.280Z,6.47
2023-04-18T16:14:56.870Z,7.00
2023-04-18T16:17:23.639Z,6.97
2023-04-18T16:19:50.247Z,5.70
2023-04-18T16:22:16.824Z,6.00
2023-04-18T16:24:43.410Z,6.30
2023-04-18T16:27:09.959Z,6.00
2023-04-18T16:29:36.498Z,6.57
2023-04-18T16:32:03.090Z,5.93
2023-04-18T16:34:29.691Z,5.93
2023-04-18T16:36:56.228Z,5.60
2023-04-18T16:39:22.819Z,5.53
2023-04-18T16:41:49.376Z,5.47
2023-04-18T16:44:16.187Z,6.60
2023-04-18T16:46:43.087Z,5.50
2023-04-18T16:49:09.852Z,6.30
2023-04-18T16:51:37.883Z,5.90
2023-04-18T16:54:06.294Z,6.00
2023-04-18T16:56:34.139Z,5.87
2023-04-18T16:59:00.791Z,6.03
2023-04-18T17:01:27.368Z,5.90
2023-04-18T17:03:54.035Z,7.10
2023-04-18T17:06:22.707Z,6.60
2023-04-18T17:08:49.554Z,5.73
2023-04-18T17:11:16.079Z,5.70
2023-04-18T17:13:42.734Z,6.13
2023-04-18T17:16:09.296Z,5.80
2023-04-18T17:18:35.941Z,6.57
2023-04-18T17:21:02.532Z,5.30
2023-04-18T17:23:30.391Z,5.57
2023-04-18T17:25:58.804Z,5.37
2023-04-18T17:28:25.369Z,6.27
2023-04-18T17:30:52.063Z,4.83
2023-04-18T17:33:18.625Z,5.10
2023-04-18T17:35:45.170Z,5.67
2023-04-18T17:38:11.823Z,5.87
2023-04-18T17:40:39.679Z,5.40
2023-04-18T17:43:06.335Z,5.80
2023-04-18T17:45:32.902Z,5.80
2023-04-18T17:48:02.154Z,5.73
2023-04-18T17:50:28.809Z,5.53
2023-04-18T17:52:55.686Z,5.80
2023-04-18T17:55:22.279Z,6.43
2023-04-18T17:57:49.051Z,6.17
2023-04-18T18:00:16.036Z,5.97
2023-04-18T18:02:42.948Z,6.40
2023-04-18T18:05:14.271Z,6.17
2023-04-18T18:07:44.125Z,5.50
2023-04-18T18:10:11.501Z,6.10
2023-04-18T18:12:38.317Z,7.00
2023-04-18T18:15:05.578Z,5.70
2023-04-18T18:17:32.150Z,6.30
2023-04-18T18:19:58.764Z,6.80
2023-04-18T18:22:26.153Z,6.20
2023-04-18T18:24:52.900Z,6.97
2023-04-18T18:27:20.382Z,6.77
2023-04-18T18:29:48.098Z,6.80
2023-04-18T18:32:15.147Z,6.67
2023-04-18T18:34:41.740Z,7.27
2023-04-18T18:37:08.352Z,6.93
2023-04-18T18:39:36.664Z,6.27
2023-04-18T18:42:03.379Z,6.97
2023-04-18T18:44:30.610Z,6.93
2023-04-18T18:46:58.790Z,7.10
2023-04-18T18:49:26.610Z,7.60
2023-04-18T18:51:53.563Z,7.40
2023-04-18T18:54:20.130Z,7.53
2023-04-18T18:56:46.877Z,6.40
2023-04-18T18:59:13.661Z,7.70
2023-04-18T19:01:40.857Z,7.90
2023-04-18T19:04:07.850Z,7.63
2023-04-18T19:06:35.156Z,7.13
2023-04-18T19:09:01.802Z,8.97
2023-04-18T19:11:29.224Z,7.50
2023-04-18T19:13:55.804Z,8.07
2023-04-18T19:16:22.634Z,8.37
2023-04-18T19:18:50.649Z,7.27
2023-04-18T19:21:17.763Z,8.73
2023-04-18T19:23:44.531Z,7.77
2023-04-18T19:26:11.107Z,7.97
2023-04-18T19:28:37.748Z,7.70
2023-04-18T19:31:04.471Z,6.83
2023-04-18T19:33:31.087Z,7.27
2023-04-18T19:35:58.223Z,8.23
2023-04-18T19:38:24.875Z,8.57
2023-04-18T19:40:51.551Z,9.87
2023-04-18T19:43:18.162Z,8.13
2023-04-18T19:45:44.942Z,7.53
2023-04-18T19:48:11.992Z,10.13
2023-04-18T19:50:42.319Z,7.33
2023-04-18T19:53:08.976Z,7.87
2023-04-18T19:55:35.682Z,8.57
2023-04-18T19:58:02.229Z,7.47
2023-04-18T20:00:29.383Z,9.07
2023-04-18T20:02:58.346Z,6.73
2023-04-18T20:05:25.367Z,7.00
2023-04-18T20:07:51.983Z,6.97
2023-04-18T20:10:22.339Z,7.40
2023-04-18T20:12:50.073Z,7.17
2023-04-18T20:15:16.992Z,6.53
2023-04-18T20:17:43.589Z,6.23
2023-04-18T20:20:11.415Z,9.03
2023-04-18T20:22:40.331Z,9.17
2023-04-18T20:25:07.312Z,7.37
2023-04-18T20:27:33.913Z,7.43
2023-04-18T20:30:00.482Z,8.27
2023-04-18T20:32:27.256Z,9.83
2023-04-18T20:34:53.966Z,7.20
2023-04-18T20:37:20.742Z,7.43
2023-04-18T20:39:47.722Z,7.00
2023-04-18T20:42:14.372Z,7.10
2023-04-18T20:44:44.152Z,8.67
2023-04-18T20:47:10.739Z,7.83
2023-04-18T20:49:38.121Z,7.60
2023-04-18T20:52:08.249Z,7.67
2023-04-18T20:54:34.767Z,8.33
2023-04-18T20:57:01.522Z,8.10
2023-04-18T20:59:28.288Z,7.97
2023-04-18T21:01:54.932Z,7.03
2023-04-18T21:04:21.655Z,9.00
2023-04-18T21:06:48.412Z,6.80
2023-04-18T21:09:15.297Z,7.70
2023-04-18T21:11:42.115Z,7.87
2023-04-18T21:14:08.715Z,8.13
2023-04-18T21:16:36.756Z,7.57
2023-04-18T21:19:03.358Z,9.10
2023-04-18T21:21:30.107Z,8.00
2023-04-18T21:23:56.659Z,7.97
2023-04-18T21:26:23.269Z,7.73
2023-04-18T21:29:00.707Z,8.43
2023-04-18T21:31:30.148Z,8.00
2023-04-18T21:33:58.653Z,7.37
2023-04-18T21:36:27.127Z,8.07
2023-04-18T21:38:56.022Z,9.37
2023-04-18T21:41:23.199Z,7.37
2023-04-18T21:43:49.964Z,10.07
2023-04-18T21:46:17.231Z,7.87
2023-04-18T21:48:46.235Z,9.07
2023-04-18T21:51:15.353Z,8.40
2023-04-18T21:53:42.449Z,9.47
2023-04-18T21:56:09.354Z,9.43
2023-04-18T21:58:35.887Z,9.47
2023-04-18T22:01:02.882Z,9.73
2023-04-18T22:03:30.250Z,9.03
2023-04-18T22:05:57.604Z,7.23
2023-04-18T22:08:28.568Z,8.03
2023-04-18T22:10:56.364Z,9.60
2023-04-18T22:13:23.646Z,10.40
2023-04-18T22:15:51.503Z,8.50
2023-04-18T22:18:19.101Z,7.83
2023-04-18T22:20:46.909Z,7.53
2023-04-18T22:23:13.947Z,7.90
2023-04-18T22:25:40.897Z,9.47
2023-04-18T22:28:07.615Z,8.67
2023-04-18T22:30:34.630Z,8.43
2023-04-18T22:33:01.309Z,17.03
2023-04-18T22:35:28.062Z,7.33
2023-04-18T22:37:55.571Z,7.33
2023-04-18T22:40:22.277Z,9.53
2023-04-18T22:42:48.836Z,8.53
2023-04-18T22:45:15.602Z,7.70
2023-04-18T22:47:42.234Z,8.37
2023-04-18T22:50:09.256Z,8.83
2023-04-18T22:52:35.934Z,8.43
2023-04-18T22:55:03.454Z,9.67
2023-04-18T22:57:30.275Z,7.90
2023-04-18T22:59:56.774Z,8.27
2023-04-18T23:02:24.555Z,8.17
2023-04-18T23:04:51.405Z,7.77
2023-04-18T23:07:18.035Z,8.83
2023-04-18T23:09:45.141Z,7.73
2023-04-18T23:12:11.641Z,7.23
2023-04-18T23:14:38.941Z,8.93
2023-04-18T23:17:05.576Z,8.10
2023-04-18T23:19:32.047Z,7.83
2023-04-18T23:21:59.844Z,8.63
2023-04-18T23:24:26.881Z,7.93
2023-04-18T23:26:53.426Z,7.63
2023-04-18T23:29:19.961Z,7.50
2023-04-18T23:31:46.545Z,7.53
2023-04-18T23:34:13.265Z,8.20
2023-04-18T23:36:40.581Z,8.00
2023-04-18T23:39:08.431Z,7.70
2023-04-18T23:41:34.902Z,8.27
2023-04-18T23:44:01.415Z,7.77
2023-04-18T23:46:27.985Z,9.33
2023-04-18T23:48:54.662Z,7.30
2023-04-18T23:51:21.168Z,8.77
2023-04-18T23:53:47.796Z,8.97
2023-04-18T23:56:14.327Z,8.33
2023-04-18T23:58:40.918Z,8.87
